Time,TemperatureF,DewpointF,PressureIn,WindDirection,WindDirectionDegrees,WindSpeedMPH,WindSpeedGustMPH,Humidity,HourlyPrecipIn,Conditions,Clouds,dailyrainin,SoftwareType,DateUTC
2013-10-02 00:13:00,51.0,35.0,-100.00,West,262,2.0,7.0,54,0.00,,,0.00,,2013-10-02 05:13:00,
2013-10-02 00:23:00,51.0,35.0,-100.00,West,262,2.0,7.0,54,0.00,,,0.00,,2013-10-02 05:23:00,
2013-10-02 00:33:00,51.0,35.0,-100.00,West,262,2.0,7.0,54,0.00,,,0.00,,2013-10-02 05:33:00,
2013-10-02 01:12:00,49.0,35.0,-100.00,NW,323,2.0,6.0,58,0.00,,,0.00,,2013-10-02 06:12:00,
2013-10-02 01:22:00,49.0,35.0,-100.00,NW,323,2.0,6.0,58,0.00,,,0.00,,2013-10-02 06:22:00,
2013-10-02 01:32:00,49.0,35.0,-100.00,NW,323,2.0,6.0,58,0.00,,,0.00,,2013-10-02 06:32:00,
2013-10-02 02:12:00,45.0,35.0,-100.00,NNE,25,1.0,4.0,68,0.00,,,0.00,,2013-10-02 07:12:00,
2013-10-02 02:22:00,45.0,35.0,-100.00,NNE,25,1.0,4.0,68,0.00,,,0.00,,2013-10-02 07:22:00,
2013-10-02 02:32:00,45.0,35.0,-100.00,NNE,25,1.0,4.0,68,0.00,,,0.00,,2013-10-02 07:32:00,
2013-10-02 03:11:00,43.0,37.0,-100.00,North,353,1.0,5.0,78,0.00,,,0.00,,2013-10-02 08:11:00,
2013-10-02 03:22:00,43.0,37.0,-100.00,North,353,1.0,5.0,78,0.00,,,0.00,,2013-10-02 08:22:00,
2013-10-02 03:32:00,43.0,37.0,-100.00,North,353,1.0,5.0,78,0.00,,,0.00,,2013-10-02 08:32:00,
2013-10-02 06:12:00,41.0,37.0,-100.00,SW,227,1.0,6.0,85,0.00,,,0.00,,2013-10-02 11:12:00,
2013-10-02 06:22:00,41.0,37.0,-100.00,SW,227,1.0,6.0,85,0.00,,,0.00,,2013-10-02 11:22:00,
2013-10-02 06:33:00,41.0,37.0,-100.00,SW,227,1.0,6.0,85,0.00,,,0.00,,2013-10-02 11:33:00,
2013-10-02 08:11:00,41.0,35.0,-100.00,North,11,1.0,6.0,79,-99.99,,,0.00,,2013-10-02 13:11:00,
2013-10-02 08:22:00,41.0,35.0,-100.00,North,11,1.0,6.0,79,-99.99,,,0.00,,2013-10-02 13:22:00,
2013-10-02 08:32:00,41.0,35.0,-100.00,North,11,1.0,6.0,79,-99.99,,,0.00,,2013-10-02 13:32:00,
2013-10-02 10:11:00,56.0,44.0,-100.00,WSW,253,4.0,8.0,63,-99.99,,,0.00,,2013-10-02 15:11:00,
2013-10-02 10:22:00,56.0,44.0,-100.00,WSW,253,4.0,8.0,63,-99.99,,,0.00,,2013-10-02 15:22:00,
2013-10-02 10:33:00,56.0,44.0,-100.00,WSW,253,4.0,8.0,63,-99.99,,,0.00,,2013-10-02 15:33:00,
2013-10-02 11:12:00,65.0,41.0,-100.00,West,264,4.0,11.0,42,0.00,,,0.00,,2013-10-02 16:12:00,
2013-10-02 11:23:00,65.0,41.0,-100.00,West,264,4.0,11.0,42,0.00,,,0.00,,2013-10-02 16:23:00,
2013-10-02 11:32:00,65.0,41.0,-100.00,West,264,4.0,11.0,42,0.00,,,0.00,,2013-10-02 16:32:00,
2013-10-02 12:12:00,64.0,37.0,-100.00,WSW,237,5.0,11.0,37,0.00,,,0.00,,2013-10-02 17:12:00,
2013-10-02 12:23:00,64.0,37.0,-100.00,WSW,237,5.0,11.0,37,0.00,,,0.00,,2013-10-02 17:23:00,
2013-10-02 12:33:00,64.0,37.0,-100.00,WSW,237,5.0,11.0,37,0.00,,,0.00,,2013-10-02 17:33:00,
2013-10-02 14:11:00,63.0,38.0,-100.00,West,264,4.0,9.0,40,-99.99,,,0.00,,2013-10-02 19:11:00,
2013-10-02 14:22:00,63.0,38.0,-100.00,West,264,4.0,9.0,40,-99.99,,,0.00,,2013-10-02 19:22:00,
2013-10-02 14:32:00,63.0,38.0,-100.00,West,264,4.0,9.0,40,-99.99,,,0.00,,2013-10-02 19:32:00,
2013-10-02 15:11:00,67.0,42.0,-100.00,NNW,347,4.0,11.0,40,0.00,,,0.00,,2013-10-02 20:11:00,
2013-10-02 16:11:00,67.0,43.0,-100.00,NNW,327,3.0,11.0,41,-99.99,,,0.00,,2013-10-02 21:11:00,
2013-10-02 17:13:00,59.0,40.0,-100.00,WNW,300,2.0,7.0,50,-99.99,,,0.00,,2013-10-02 22:13:00,
2013-10-02 17:24:00,59.0,40.0,-100.00,WNW,300,2.0,7.0,50,-99.99,,,0.00,,2013-10-02 22:24:00,
2013-10-02 17:33:00,59.0,40.0,-100.00,WNW,300,2.0,7.0,50,-99.99,,,0.00,,2013-10-02 22:33:00,
2013-10-02 19:12:00,56.0,43.0,-100.00,NE,40,2.0,5.0,61,-99.99,,,0.00,,2013-10-03 00:12:00,
2013-10-02 19:22:00,56.0,43.0,-100.00,NE,40,2.0,5.0,61,-99.99,,,0.00,,2013-10-03 00:22:00,
2013-10-02 19:32:00,56.0,43.0,-100.00,NE,40,2.0,5.0,61,-99.99,,,0.00,,2013-10-03 00:32:00,
2013-10-02 20:11:00,51.0,48.0,-100.00,ENE,69,0.0,2.0,88,0.00,,,0.00,,2013-10-03 01:11:00,
2013-10-02 20:23:00,51.0,48.0,-100.00,ENE,69,0.0,2.0,88,0.00,,,0.00,,2013-10-03 01:23:00,
2013-10-02 20:32:00,51.0,48.0,-100.00,ENE,69,0.0,2.0,88,0.00,,,0.00,,2013-10-03 01:32:00,
2013-10-02 21:11:00,50.0,49.0,-100.00,SE,143,3.0,7.0,95,0.00,,,-99.99,,2013-10-03 02:11:00,
2013-10-02 21:22:00,50.0,49.0,-100.00,SE,143,3.0,7.0,95,0.00,,,-99.99,,2013-10-03 02:22:00,
2013-10-02 21:32:00,50.0,49.0,-100.00,SE,143,3.0,7.0,95,0.00,,,-99.99,,2013-10-03 02:32:00,
2013-10-02 22:11:00,50.0,46.0,-100.00,SSE,161,3.0,7.0,86,0.00,,,0.00,,2013-10-03 03:11:00,
2013-10-02 22:22:00,50.0,46.0,-100.00,SSE,161,3.0,7.0,86,0.00,,,0.00,,2013-10-03 03:22:00,
2013-10-02 22:35:00,50.0,46.0,-100.00,SSE,161,3.0,7.0,86,0.00,,,0.00,,2013-10-03 03:35:00,
2013-10-02 23:13:00,47.0,44.0,-100.00,SE,141,2.0,5.0,90,0.01,,,0.01,,2013-10-03 04:13:00,
2013-10-02 23:24:00,47.0,44.0,-100.00,SE,141,2.0,5.0,90,0.01,,,0.01,,2013-10-03 04:24:00,
2013-10-02 23:34:00,47.0,44.0,-100.00,SE,141,2.0,5.0,90,0.01,,,0.01,,2013-10-03 04:34:00,